Nederlandse vliegveldverwachtingen (TAF)

Luchtvaartmeteorologische informatie voor operationeel gebruik en vluchtvoorbereiding is beschikbaar op www.luchtvaartmeteo.nl.

ZCZC
FC250100 EHGR     GILZE-RIJEN/GILZE-RIJEN   NLD   14 m.
TAF EHGR 250100Z NIL=

ZCZC
FC250100 EHWO     WOENSDRECHT/WOENSDRECHT   NLD   19 m.
TAF EHWO 250100Z NIL=

ZCZC
FT252300 EHBK     MAASTRICHT/MAASTRICHT-AACHEN   NLD   114 m.
TAF EHBK 252312Z 2600/2706 20010KT 9999 SCT045
    BECMG 2607/2610 22015G27KT
    BECMG 2615/2617 20012KT
    PROB30 TEMPO 2618/2701 7000 -SHRA RA SCT020TCU BKN025=

ZCZC
FT252300 EHGG     GRONINGEN/EELDE   NLD   5 m.
TAF EHGG 252312Z 2600/2706 19009KT CAVOK
    PROB40 TEMPO 2600/2611 BKN012
    BECMG 2608/2610 20012G22KT
    BECMG 2615/2617 20009KT
    PROB30 TEMPO 2621/2706 7000 -SHRA RA SCT016TCU BKN020
    PROB30 2700/2706 BKN012=

ZCZC
FT252300 EHLE     LELYSTAD/LELYSTAD   NLD   -3 m.
TAF EHLE 252307Z 2600/2706 19010KT 9999 FEW020 SCT040
    PROB40 TEMPO 2606/2611 BKN014
    BECMG 2608/2611 21015G25KT
    PROB30 TEMPO 2616/2706 7000 -SHRA FEW020CB BKN040
    BECMG 2619/2622 21010KT=

ZCZC
FT252300 EHRD     ROTTERDAM/THE HAGUE AIRPORT   NLD   -5 m.
TAF EHRD 252307Z 2600/2706 19011KT 9999 FEW020 SCT040
    PROB40 TEMPO 2607/2611 BKN014
    BECMG 2608/2611 21015G25KT
    PROB40 TEMPO 2615/2705 6000 SHRA SCT020CB BKN040
    BECMG 2619/2622 21010KT=

ZCZC
FT252300 EHAM CCA AMSTERDAM/SCHIPHOL   NLD   -3 m.
TAF COR EHAM 252350Z 2600/2706 19011KT 9999 FEW020 SCT040
    PROB40 TEMPO 2607/2611 BKN014
    BECMG 2608/2611 21015G25KT
    PROB40 TEMPO 2616/2622 5000 SHRA TSRA SCT018CB BKN030
    BECMG 2619/2622 21010KT
    PROB30 TEMPO 2622/2705 6000 SHRA SCT020CB BKN040=

ZCZC
FT252300 EHEH     EINDHOVEN/EINDHOVEN   NLD   22 m.
TAF EHEH 252303Z 2600/2706 18008KT 9999 FEW012 SCT040
    BECMG 2607/2610 21013G25KT SCT016
    BECMG 2610/2612 SCT020
    BECMG 2614/2616 21010KT
    PROB40 TEMPO 2615/2701 21015G25KT 4500 SHRAGS FEW012
    SCT015CB BKN025=

ZCZC
FC260100 EHLW RRB LEEUWARDEN/LEEUWARDEN   NLD   1 m.
TAF EHLW 260103Z 2602/2614 18008KT 9999 FEW015 BKN020
    TEMPO 2602/2608 FEW012 BKN015
    BECMG 2608/2610 20015G25KT
    PROB30 TEMPO 2610/2614 4500 -SHRA SCT015 SCT018CB BKN020=

ZCZC
FC260100 EHVK RRA VOLKEL/VOLKEL   NLD   21 m.
TAF EHVK 260101Z 2602/2614 18008KT 9999 FEW012 SCT040
    BECMG 2607/2610 21013G25KT SCT016
    BECMG 2610/2612 SCT020
    BECMG 2614/2616 21010KT
    PROB40 TEMPO 2615/2701 21015G25KT 4500 SHRAGS FEW012
    SCT015CB BKN025=

ZCZC
FC260100 EHKD RRC DE KOOY/DE KOOY   NLD   1 m.
TAF EHKD 260107Z 2602/2614 18012KT 9999 FEW015 BKN025
    PROB40 TEMPO 2602/2610 -SHRA SCT015 SCT018CB BKN022
    BECMG 2608/2610 20015G25KT
    PROB30 TEMPO 2610/2614 21018G30KT 4000 SHRA TSRAGS SCT010
    SCT015CB BKN020=

26/10/2020 02.30 uur LT